Time;durP1;ratioP1;P1;durP2;ratioP2;P2;SDS_P1;SDS_P2;PMS_P1;PMS_P2;Temp;Humidity;BMP_temperature;BMP_pressure;BME280_temperature;BME280_humidity;BME280_pressure;Samples;Min_cycle;Max_cycle;Signal;HPM_P1;HPM_P2
2024/02/03 00:05:28;;;;;;;;;;;9.10;99.90;;;;;;6731655;88;20157;-76
2024/02/03 00:15:29;;;;;;;;;;;9.10;99.90;;;;;;6726174;88;20079;-76
2024/02/03 00:25:29;;;;;;;;;;;9.20;99.90;;;;;;6741576;88;20071;-77
2024/02/03 00:35:30;;;;;;;;;;;9.10;99.90;;;;;;6732207;88;20042;-76
2024/02/03 00:45:30;;;;;;;;;;;9.10;99.90;;;;;;6727891;88;20181;-76
2024/02/03 00:55:31;;;;;;;;;;;9.00;99.90;;;;;;6731584;88;20054;-76
2024/02/03 01:05:31;;;;;;;;;;;8.90;99.90;;;;;;6734360;88;20721;-76
2024/02/03 01:15:31;;;;;;;;;;;8.90;99.90;;;;;;6730184;88;20080;-76
2024/02/03 01:25:32;;;;;;;;;;;8.80;99.90;;;;;;6735462;88;20768;-77
2024/02/03 01:35:32;;;;;;;;;;;8.70;99.90;;;;;;6729663;88;20079;-76
2024/02/03 01:45:33;;;;;;;;;;;8.60;99.90;;;;;;6729424;88;20101;-76
2024/02/03 01:55:34;;;;;;;;;;;8.60;99.90;;;;;;6729326;88;20142;-75
2024/02/03 02:05:35;;;;;;;;;;;8.60;99.90;;;;;;6732749;88;20059;-76
2024/02/03 02:15:35;;;;;;;;;;;8.60;99.90;;;;;;6737908;88;20070;-76
2024/02/03 02:25:36;;;;;;;;;;;8.60;99.90;;;;;;6730689;88;20043;-75
2024/02/03 02:35:36;;;;;;;;;;;8.50;99.90;;;;;;6730658;88;20117;-76
2024/02/03 02:45:37;;;;;;;;;;;8.50;99.90;;;;;;6732889;88;20125;-76
2024/02/03 02:55:37;;;;;;;;;;;8.50;99.90;;;;;;6735921;88;20089;-77
2024/02/03 03:05:38;;;;;;;;;;;8.50;99.90;;;;;;6733923;88;20083;-77
2024/02/03 03:15:38;;;;;;;;;;;8.50;99.90;;;;;;6732503;88;20058;-76
2024/02/03 03:25:39;;;;;;;;;;;8.50;99.90;;;;;;6745644;88;20067;-76
2024/02/03 03:35:39;;;;;;;;;;;8.50;99.90;;;;;;6735685;88;20122;-76
2024/02/03 03:45:40;;;;;;;;;;;8.50;99.90;;;;;;6727741;88;20909;-76
2024/02/03 03:55:40;;;;;;;;;;;8.50;99.90;;;;;;6729800;88;20063;-76
2024/02/03 04:05:41;;;;;;;;;;;8.70;99.90;;;;;;6739256;88;20487;-78
2024/02/03 04:15:41;;;;;;;;;;;8.70;99.90;;;;;;6741037;88;20174;-77
2024/02/03 04:25:42;;;;;;;;;;;8.60;99.90;;;;;;6735584;88;20053;-74
2024/02/03 04:35:42;;;;;;;;;;;8.70;99.90;;;;;;6729672;88;20066;-76
2024/02/03 04:45:43;;;;;;;;;;;8.80;99.90;;;;;;6727131;88;20088;-76
2024/02/03 05:06:45;;;;;;;;;;;8.90;99.90;;;;;;6761179;87;20014;-79
2024/02/03 05:16:45;;;;;;;;;;;9.00;99.90;;;;;;6751204;88;20037;-80
2024/02/03 05:26:46;;;;;;;;;;;9.10;99.90;;;;;;6750757;88;20050;-80
2024/02/03 05:36:46;;;;;;;;;;;9.00;99.90;;;;;;6750852;88;20051;-79
2024/02/03 05:46:47;;;;;;;;;;;9.20;99.90;;;;;;6751028;88;20050;-79
2024/02/03 05:56:47;;;;;;;;;;;9.30;99.90;;;;;;6749504;88;20068;-79
2024/02/03 06:06:48;;;;;;;;;;;9.40;99.90;;;;;;6728407;88;20045;-77
2024/02/03 06:16:48;;;;;;;;;;;9.50;99.90;;;;;;6722357;88;20203;-79
2024/02/03 06:26:49;;;;;;;;;;;9.50;99.90;;;;;;6722404;88;20083;-78
2024/02/03 06:36:49;;;;;;;;;;;9.60;99.90;;;;;;6722653;88;20617;-77
2024/02/03 06:46:49;;;;;;;;;;;9.60;99.90;;;;;;6724186;88;20062;-80
2024/02/03 06:56:50;;;;;;;;;;;9.80;99.90;;;;;;6725214;88;20074;-81
2024/02/03 07:06:50;;;;;;;;;;;9.80;99.90;;;;;;6724498;88;20646;-78
2024/02/03 07:16:51;;;;;;;;;;;9.90;99.90;;;;;;6729041;88;20547;-79
2024/02/03 07:26:51;;;;;;;;;;;9.90;99.90;;;;;;6728968;88;20173;-81
2024/02/03 07:36:52;;;;;;;;;;;10.00;99.90;;;;;;6738827;88;20138;-78
2024/02/03 07:46:53;;;;;;;;;;;10.10;99.90;;;;;;6721099;88;20072;-78
2024/02/03 07:56:53;;;;;;;;;;;10.30;99.90;;;;;;6722351;88;20148;-79
2024/02/03 08:06:53;;;;;;;;;;;10.30;99.90;;;;;;6723146;88;20050;-78
2024/02/03 08:16:55;;;;;;;;;;;10.40;99.90;;;;;;6714342;88;20047;-79
2024/02/03 08:26:56;;;;;;;;;;;10.40;99.90;;;;;;6715759;88;20082;-80
2024/02/03 08:36:56;;;;;;;;;;;10.50;99.90;;;;;;6730363;88;20050;-83
2024/02/03 08:46:56;;;;;;;;;;;10.50;99.90;;;;;;6733871;88;20218;-81
2024/02/03 08:56:58;;;;;;;;;;;10.50;99.90;;;;;;6734770;88;20073;-81
2024/02/03 09:06:59;;;;;;;;;;;10.60;99.90;;;;;;6735083;88;20216;-81
2024/02/03 09:16:59;;;;;;;;;;;10.70;99.90;;;;;;6729431;88;20030;-80
2024/02/03 09:27:01;;;;;;;;;;;10.90;99.90;;;;;;6735135;88;20064;-80
2024/02/03 09:37:01;;;;;;;;;;;11.00;99.90;;;;;;6719977;88;20536;-82
2024/02/03 09:47:02;;;;;;;;;;;11.00;99.90;;;;;;6716371;88;20059;-82
2024/02/03 09:57:03;;;;;;;;;;;11.10;99.90;;;;;;6713275;88;20059;-81
2024/02/03 10:07:04;;;;;;;;;;;11.10;99.90;;;;;;6727348;88;20065;-79
2024/02/03 10:17:04;;;;;;;;;;;11.20;99.90;;;;;;6706054;88;20128;-81
2024/02/03 10:27:05;;;;;;;;;;;11.20;99.90;;;;;;6714244;88;20082;-81
2024/02/03 10:37:05;;;;;;;;;;;11.30;99.90;;;;;;6713197;88;20058;-80
2024/02/03 10:47:06;;;;;;;;;;;11.40;99.90;;;;;;6722157;88;20595;-79
2024/02/03 10:57:10;;;;;;;;;;;11.50;99.90;;;;;;6715144;88;20065;-81
2024/02/03 11:07:19;;;;;;;;;;;11.60;99.90;;;;;;6703519;88;20076;-80
2024/02/03 11:17:20;;;;;;;;;;;11.60;99.90;;;;;;6714360;88;20066;-81
2024/02/03 11:27:20;;;;;;;;;;;11.70;99.90;;;;;;6739536;88;20074;-79
2024/02/03 11:37:20;;;;;;;;;;;11.90;99.90;;;;;;6721396;88;20072;-79
2024/02/03 11:47:22;;;;;;;;;;;12.00;99.90;;;;;;6701714;88;20060;-77
2024/02/03 11:57:22;;;;;;;;;;;12.10;99.90;;;;;;6718057;88;20224;-80
2024/02/03 12:07:23;;;;;;;;;;;12.30;99.90;;;;;;6721526;88;20186;-78
2024/02/03 12:17:23;;;;;;;;;;;12.50;99.90;;;;;;6724541;88;20065;-79
2024/02/03 12:27:24;;;;;;;;;;;12.60;99.90;;;;;;6722748;88;20179;-78
2024/02/03 12:37:24;;;;;;;;;;;12.60;99.90;;;;;;6725006;88;20062;-82
2024/02/03 12:47:25;;;;;;;;;;;12.50;99.90;;;;;;6726252;88;20066;-80
2024/02/03 12:57:25;;;;;;;;;;;12.70;99.90;;;;;;6730493;88;20200;-80
2024/02/03 13:07:26;;;;;;;;;;;12.90;99.90;;;;;;6730892;88;20074;-81
2024/02/03 13:17:27;;;;;;;;;;;13.50;99.90;;;;;;6731121;88;20061;-81
2024/02/03 13:27:27;;;;;;;;;;;14.90;99.90;;;;;;6725170;88;20070;-81
2024/02/03 13:37:29;;;;;;;;;;;15.20;99.90;;;;;;6733535;88;20076;-81
2024/02/03 13:47:29;;;;;;;;;;;14.00;99.90;;;;;;6735559;88;20131;-83
2024/02/03 13:57:30;;;;;;;;;;;13.40;99.90;;;;;;6740155;88;20108;-83
2024/02/03 14:07:30;;;;;;;;;;;13.10;99.90;;;;;;6741714;88;20191;-82
2024/02/03 14:17:31;;;;;;;;;;;12.90;99.90;;;;;;6740967;88;20053;-81
2024/02/03 14:27:32;;;;;;;;;;;12.60;99.90;;;;;;6746025;88;20051;-84
2024/02/03 14:37:33;;;;;;;;;;;12.60;99.90;;;;;;6741297;88;20330;-81
2024/02/03 14:47:33;;;;;;;;;;;12.50;99.90;;;;;;6739672;88;20071;-81
2024/02/03 14:57:33;;;;;;;;;;;12.10;99.90;;;;;;6738357;88;20071;-81
2024/02/03 15:07:35;;;;;;;;;;;12.00;99.90;;;;;;6727322;88;20111;-79
2024/02/03 15:17:35;;;;;;;;;;;12.00;99.90;;;;;;6725691;88;20066;-80
2024/02/03 15:27:35;;;;;;;;;;;11.90;99.90;;;;;;6729499;88;20062;-81
2024/02/03 15:37:36;;;;;;;;;;;11.80;99.90;;;;;;6725897;88;20062;-79
2024/02/03 15:47:36;;;;;;;;;;;11.70;99.90;;;;;;6723469;88;20087;-78
2024/02/03 15:57:37;;;;;;;;;;;11.70;99.90;;;;;;6725322;88;20055;-80
2024/02/03 16:07:39;;;;;;;;;;;11.60;99.90;;;;;;6729232;88;20062;-80
2024/02/03 16:17:40;;;;;;;;;;;11.50;99.90;;;;;;6728767;88;20051;-80
2024/02/03 16:27:40;;;;;;;;;;;11.40;99.90;;;;;;6727993;88;20046;-80
2024/02/03 16:37:41;;;;;;;;;;;11.30;99.90;;;;;;6730977;88;20200;-81
2024/02/03 16:47:41;;;;;;;;;;;11.20;99.90;;;;;;6722501;88;20171;-80
2024/02/03 16:57:42;;;;;;;;;;;11.20;99.90;;;;;;6732847;77;20070;-77
2024/02/03 17:07:42;;;;;;;;;;;11.20;99.90;;;;;;6742857;87;20071;-75
2024/02/03 17:17:43;;;;;;;;;;;11.30;99.90;;;;;;6748670;87;20200;-74
2024/02/03 17:27:43;;;;;;;;;;;11.30;99.90;;;;;;6747195;87;20066;-75
2024/02/03 17:37:46;;;;;;;;;;;11.30;99.90;;;;;;6747850;87;20096;-72
2024/02/03 17:47:46;;;;;;;;;;;11.20;99.90;;;;;;6747578;87;20065;-76
2024/02/03 17:57:47;;;;;;;;;;;11.10;99.90;;;;;;6746551;87;20638;-75
2024/02/03 18:07:47;;;;;;;;;;;11.00;99.90;;;;;;6744846;87;20184;-75
2024/02/03 18:17:48;;;;;;;;;;;11.00;99.90;;;;;;6744570;87;20067;-75
2024/02/03 18:27:48;;;;;;;;;;;11.00;99.90;;;;;;6751456;87;20095;-75
2024/02/03 18:37:49;;;;;;;;;;;11.00;99.90;;;;;;6750043;87;20083;-75
2024/02/03 18:47:49;;;;;;;;;;;11.10;99.90;;;;;;6746599;87;20086;-75
2024/02/03 18:57:50;;;;;;;;;;;11.10;99.90;;;;;;6750296;87;20156;-75
2024/02/03 19:07:50;;;;;;;;;;;11.10;99.90;;;;;;6745252;87;20079;-74
2024/02/03 19:17:51;;;;;;;;;;;11.10;99.90;;;;;;6747097;87;20069;-75
2024/02/03 19:27:52;;;;;;;;;;;11.10;99.90;;;;;;6747765;87;20599;-75
2024/02/03 19:37:54;;;;;;;;;;;11.10;99.90;;;;;;6747819;87;20090;-75
2024/02/03 19:47:55;;;;;;;;;;;11.10;99.90;;;;;;6747374;87;20054;-76
2024/02/03 19:57:55;;;;;;;;;;;11.10;99.90;;;;;;6747540;87;20064;-76
2024/02/03 20:07:56;;;;;;;;;;;11.10;99.90;;;;;;6755498;87;20204;-76
2024/02/03 20:17:56;;;;;;;;;;;11.00;99.90;;;;;;6749455;87;20093;-77
2024/02/03 20:27:57;;;;;;;;;;;11.10;99.90;;;;;;6751550;87;20058;-76
2024/02/03 20:37:57;;;;;;;;;;;11.00;99.90;;;;;;6748855;87;20515;-77
2024/02/03 20:47:58;;;;;;;;;;;11.10;99.90;;;;;;6746364;87;20118;-77
2024/02/03 20:57:59;;;;;;;;;;;11.10;99.90;;;;;;6745926;87;20058;-77
2024/02/03 21:08:04;;;;;;;;;;;11.10;99.90;;;;;;6745280;87;20067;-77
2024/02/03 21:18:05;;;;;;;;;;;11.10;99.90;;;;;;6749022;87;20069;-77
2024/02/03 21:28:05;;;;;;;;;;;11.10;99.90;;;;;;6747516;87;20134;-77
2024/02/03 21:38:06;;;;;;;;;;;10.90;99.90;;;;;;6748888;87;20516;-77
2024/02/03 21:48:06;;;;;;;;;;;10.80;99.90;;;;;;6747074;87;20073;-77
2024/02/03 21:58:08;;;;;;;;;;;10.80;99.90;;;;;;6748440;87;20481;-76
2024/02/03 22:08:08;;;;;;;;;;;10.60;99.90;;;;;;6747964;87;20080;-77
2024/02/03 22:18:09;;;;;;;;;;;10.50;99.90;;;;;;6749198;87;20042;-76
2024/02/03 22:28:09;;;;;;;;;;;10.40;99.90;;;;;;6744153;87;20618;-76
2024/02/03 22:38:10;;;;;;;;;;;10.30;99.90;;;;;;6747062;87;20055;-76
2024/02/03 22:48:10;;;;;;;;;;;10.20;99.90;;;;;;6742358;87;20528;-76
2024/02/03 22:58:10;;;;;;;;;;;10.20;99.90;;;;;;6743941;87;20128;-76
2024/02/03 23:08:11;;;;;;;;;;;10.10;99.90;;;;;;6747203;87;20050;-76
2024/02/03 23:18:11;;;;;;;;;;;10.10;99.90;;;;;;6744109;87;20061;-76
2024/02/03 23:28:12;;;;;;;;;;;10.10;99.90;;;;;;6748679;87;20063;-76
2024/02/03 23:38:13;;;;;;;;;;;10.10;99.90;;;;;;6746353;87;20117;-76
2024/02/03 23:48:13;;;;;;;;;;;10.00;99.90;;;;;;6740882;87;20517;-76
2024/02/03 23:58:13;;;;;;;;;;;9.90;99.90;;;;;;6747063;87;20069;-76
